Cincinnati, Ohio
Traffic Map
Current Weather Conditions
Cincinnati, Ohio
Overcast Light Snow
Overcast
19°
Feels Like: 5°
Wind Chill: Ceiling: 4900
Heat Index: 19° Visibility: 5mi
Dew Point: 11° Wind: 15mph
Humidity: 71% Direction: 350° (N)
Pressure: 30.22in Gusts: 21mph
Raw Report DataKLUK 262253Z 35013G18KT 5SM -SN BKN049 OVC060 M07/M12 A3022 RMK AO2 SLP239 P0000 T10721117
Traffic Incident Summary
Active as of:
Severity:
Category:
InformationThere was an issue retrieving the traffic information for this location. Please try a different location or try again shortly.
Advertisements
Track Severe Weather on mobile